createdAt,value
2018-08-27T00:02:26.723Z,1.80
2018-08-27T00:04:54.897Z,2.00
2018-08-27T00:07:23.069Z,1.80
2018-08-27T00:09:51.238Z,1.80
2018-08-27T00:12:19.410Z,1.90
2018-08-27T00:14:47.598Z,2.67
2018-08-27T00:17:15.766Z,2.00
2018-08-27T00:19:43.950Z,1.60
2018-08-27T00:22:12.206Z,1.73
2018-08-27T00:24:40.382Z,1.87
2018-08-27T00:27:08.642Z,2.07
2018-08-27T00:29:36.806Z,2.00
2018-08-27T00:32:04.978Z,1.60
2018-08-27T00:34:33.137Z,1.90
2018-08-27T00:37:01.321Z,2.00
2018-08-27T00:39:29.489Z,1.57
2018-08-27T00:41:57.662Z,2.00
2018-08-27T00:44:25.818Z,1.63
2018-08-27T00:46:53.978Z,1.83
2018-08-27T00:49:22.151Z,1.70
2018-08-27T00:51:50.327Z,2.03
2018-08-27T00:54:18.482Z,1.70
2018-08-27T00:56:46.658Z,2.03
2018-08-27T00:59:14.823Z,1.90
2018-08-27T01:01:42.985Z,1.90
2018-08-27T01:04:11.155Z,2.20
2018-08-27T01:06:39.326Z,1.90
2018-08-27T01:09:07.718Z,1.77
2018-08-27T01:11:35.890Z,1.70
2018-08-27T01:14:04.054Z,1.97
2018-08-27T01:16:32.198Z,2.17
2018-08-27T01:19:00.357Z,2.10
2018-08-27T01:21:28.502Z,1.80
2018-08-27T01:23:56.858Z,1.90
2018-08-27T01:26:25.018Z,2.53
2018-08-27T01:28:53.170Z,2.30
2018-08-27T01:31:21.381Z,1.63
2018-08-27T01:33:49.518Z,2.10
2018-08-27T01:36:17.710Z,2.20
2018-08-27T01:38:45.852Z,1.93
2018-08-27T01:41:14.002Z,1.93
2018-08-27T01:43:42.226Z,1.77
2018-08-27T01:46:10.378Z,1.73
2018-08-27T01:48:38.517Z,1.90
2018-08-27T01:51:06.674Z,2.07
2018-08-27T01:53:34.817Z,2.00
2018-08-27T01:56:02.961Z,1.80
2018-08-27T01:58:31.142Z,1.67
2018-08-27T02:00:59.294Z,1.87
2018-08-27T02:03:29.194Z,1.47
2018-08-27T02:05:57.338Z,1.90
2018-08-27T02:08:25.545Z,1.90
2018-08-27T02:10:53.961Z,2.00
2018-08-27T02:13:22.134Z,1.90
2018-08-27T02:15:50.279Z,1.90
2018-08-27T02:18:18.414Z,2.10
2018-08-27T02:20:46.554Z,2.53
2018-08-27T02:23:14.698Z,2.03
2018-08-27T02:25:44.006Z,1.90
2018-08-27T02:28:12.798Z,1.93
2018-08-27T02:30:41.036Z,1.97
2018-08-27T02:33:09.194Z,2.17
2018-08-27T02:35:37.362Z,1.80
2018-08-27T02:38:05.589Z,1.80
2018-08-27T02:40:33.753Z,1.90
2018-08-27T02:43:01.925Z,2.40
2018-08-27T02:45:30.298Z,2.23
2018-08-27T02:47:58.478Z,2.33
2018-08-27T02:50:26.662Z,2.37
2018-08-27T02:52:54.854Z,2.10
2018-08-27T02:55:23.078Z,1.83
2018-08-27T02:57:51.250Z,1.60
2018-08-27T03:00:19.622Z,2.20
2018-08-27T03:02:47.785Z,2.20
2018-08-27T03:05:16.398Z,2.03
2018-08-27T03:07:44.612Z,2.67
2018-08-27T03:10:12.769Z,1.80
2018-08-27T03:12:40.943Z,2.30
2018-08-27T03:15:09.110Z,2.00
2018-08-27T03:17:37.282Z,2.20
2018-08-27T03:20:06.114Z,1.87
2018-08-27T03:22:34.286Z,2.10
2018-08-27T03:25:02.526Z,1.90
2018-08-27T03:27:30.642Z,1.93
2018-08-27T03:29:58.806Z,1.93
2018-08-27T03:32:26.974Z,2.23
2018-08-27T03:34:55.166Z,2.33
2018-08-27T03:37:23.330Z,2.20
2018-08-27T03:39:51.494Z,2.10
2018-08-27T03:42:19.666Z,2.27
2018-08-27T03:44:47.834Z,2.07
2018-08-27T03:47:16.015Z,2.13
2018-08-27T03:49:44.174Z,1.93
2018-08-27T03:52:12.490Z,1.90
2018-08-27T03:54:40.654Z,1.80
2018-08-27T03:57:08.825Z,1.73
2018-08-27T03:59:36.986Z,1.90
2018-08-27T04:02:05.157Z,1.80
2018-08-27T04:04:33.325Z,2.17
2018-08-27T04:07:01.507Z,2.07
2018-08-27T04:09:29.668Z,1.70
2018-08-27T04:11:57.830Z,1.70
2018-08-27T04:14:26.014Z,1.97
2018-08-27T04:16:54.169Z,1.80
2018-08-27T04:19:22.338Z,1.93
2018-08-27T04:21:50.502Z,2.30
2018-08-27T04:24:18.673Z,2.10
2018-08-27T04:26:46.838Z,1.80
2018-08-27T04:29:15.018Z,2.10
2018-08-27T04:31:43.190Z,2.30
2018-08-27T04:34:11.367Z,1.90
2018-08-27T04:36:39.526Z,2.20
2018-08-27T04:39:09.132Z,2.40
2018-08-27T04:41:37.286Z,1.90
2018-08-27T04:44:05.461Z,2.03
2018-08-27T04:46:33.631Z,2.47
2018-08-27T04:49:01.946Z,2.37
2018-08-27T04:51:30.118Z,2.53
2018-08-27T04:53:58.297Z,2.40
2018-08-27T04:56:26.486Z,2.53
2018-08-27T04:58:58.894Z,2.60
2018-08-27T05:01:27.075Z,2.00
2018-08-27T05:03:55.252Z,2.90
2018-08-27T05:06:23.418Z,2.10
2018-08-27T05:08:51.598Z,2.60
2018-08-27T05:11:19.775Z,2.70
2018-08-27T05:13:47.943Z,2.57
2018-08-27T05:16:16.138Z,2.50
2018-08-27T05:18:44.312Z,2.60
2018-08-27T05:21:12.474Z,2.43
2018-08-27T05:23:40.685Z,2.27
2018-08-27T05:26:08.890Z,2.13
2018-08-27T05:28:37.071Z,2.57
2018-08-27T05:31:05.361Z,3.00
2018-08-27T05:33:33.454Z,2.10
2018-08-27T05:36:01.622Z,2.50
2018-08-27T05:38:29.811Z,2.80
2018-08-27T05:40:57.971Z,2.13
2018-08-27T05:43:26.143Z,2.70
2018-08-27T05:45:54.506Z,2.50
2018-08-27T05:48:22.721Z,2.60
2018-08-27T05:50:50.890Z,2.73
2018-08-27T05:53:19.070Z,2.70
2018-08-27T05:55:47.257Z,2.70
2018-08-27T05:58:15.535Z,2.50
2018-08-27T06:00:43.722Z,2.87
2018-08-27T06:03:11.890Z,2.73
2018-08-27T06:05:40.076Z,2.40
2018-08-27T06:08:08.252Z,2.60
2018-08-27T06:30:16.290Z,2.92
2018-08-27T06:32:44.465Z,2.20
2018-08-27T06:47:30.150Z,2.33
2018-08-27T06:49:58.334Z,2.50
2018-08-27T06:52:26.498Z,2.20
2018-08-27T06:54:54.669Z,2.27
2018-08-27T06:57:22.838Z,1.90
2018-08-27T06:59:51.039Z,2.30
2018-08-27T07:02:19.308Z,2.10
2018-08-27T07:04:47.506Z,2.10
2018-08-27T07:07:15.673Z,2.20
2018-08-27T07:09:43.874Z,2.00
2018-08-27T07:12:12.038Z,1.90
2018-08-27T07:14:40.222Z,2.03
2018-08-27T07:17:08.408Z,1.97
2018-08-27T07:19:36.598Z,1.70
2018-08-27T07:22:04.859Z,1.77
2018-08-27T07:24:33.035Z,2.00
2018-08-27T07:27:01.242Z,2.00
2018-08-27T07:29:29.546Z,1.97
2018-08-27T07:31:57.739Z,2.00
2018-08-27T07:34:25.926Z,2.10
2018-08-27T07:36:54.128Z,2.07
2018-08-27T07:39:22.293Z,1.80
2018-08-27T07:41:50.480Z,2.20
2018-08-27T07:44:18.661Z,2.30
2018-08-27T07:46:46.837Z,2.35
2018-08-27T07:49:15.022Z,2.30
2018-08-27T07:51:43.227Z,2.00
2018-08-27T07:54:11.482Z,2.40
2018-08-27T07:56:41.599Z,1.70
2018-08-27T07:59:09.850Z,2.03
2018-08-27T08:01:38.073Z,2.07
2018-08-27T08:04:06.334Z,2.03
2018-08-27T08:06:34.798Z,1.50
2018-08-27T08:09:03.039Z,1.70
2018-08-27T08:11:31.209Z,2.13
2018-08-27T08:13:59.397Z,1.73
2018-08-27T08:16:27.594Z,1.80
2018-08-27T08:18:55.759Z,1.80
2018-08-27T08:21:23.938Z,1.73
2018-08-27T08:23:52.125Z,1.80
2018-08-27T08:26:20.310Z,2.00
2018-08-27T08:28:48.461Z,1.87
2018-08-27T08:31:16.630Z,1.83
2018-08-27T08:33:44.781Z,1.97
2018-08-27T08:36:12.945Z,1.90
2018-08-27T08:38:41.107Z,3.17
2018-08-27T08:41:09.403Z,2.70
2018-08-27T08:43:37.554Z,4.00
2018-08-27T08:46:05.710Z,2.53
2018-08-27T08:48:33.866Z,2.03
2018-08-27T08:51:02.048Z,1.87
2018-08-27T08:53:30.259Z,2.33
2018-08-27T08:55:58.390Z,2.50
2018-08-27T08:58:26.566Z,2.20
2018-08-27T09:00:54.733Z,2.50
2018-08-27T09:03:22.882Z,1.83
2018-08-27T09:05:51.030Z,1.80
2018-08-27T09:08:19.284Z,1.83
2018-08-27T09:10:47.330Z,2.20
2018-08-27T09:13:15.474Z,2.00
2018-08-27T09:15:43.634Z,1.90
2018-08-27T09:18:11.791Z,1.70
2018-08-27T09:20:39.934Z,2.00
2018-08-27T09:23:08.095Z,2.10
2018-08-27T09:25:36.294Z,1.57
2018-08-27T09:28:04.486Z,2.73
2018-08-27T09:30:32.670Z,2.10
2018-08-27T09:33:00.875Z,1.63
2018-08-27T09:35:29.038Z,1.63
2018-08-27T09:37:57.231Z,1.87
2018-08-27T09:40:25.398Z,2.10
2018-08-27T09:42:53.595Z,1.80
2018-08-27T09:45:21.763Z,1.90
2018-08-27T09:47:49.949Z,1.90
2018-08-27T09:50:18.134Z,2.03
2018-08-27T09:52:46.428Z,1.53
2018-08-27T09:55:14.486Z,1.73
2018-08-27T09:57:42.668Z,1.63
2018-08-27T10:00:10.839Z,1.80
2018-08-27T10:02:39.018Z,1.80
2018-08-27T10:05:07.198Z,1.70
2018-08-27T10:07:35.378Z,1.87
2018-08-27T10:10:03.567Z,1.70
2018-08-27T10:12:31.737Z,1.70
2018-08-27T10:14:59.952Z,1.57
2018-08-27T10:17:28.196Z,1.60
2018-08-27T10:19:56.367Z,1.90
2018-08-27T10:22:24.583Z,1.50
2018-08-27T10:24:52.758Z,1.73
2018-08-27T10:27:20.944Z,1.50
2018-08-27T10:29:49.168Z,1.60
2018-08-27T12:54:59.542Z,1.53
2018-08-27T12:57:27.708Z,1.70
2018-08-27T12:59:55.874Z,1.70
2018-08-27T13:02:24.038Z,1.80
2018-08-27T13:04:52.202Z,2.00
2018-08-27T13:07:20.370Z,2.10
2018-08-27T13:09:48.538Z,2.00
2018-08-27T13:12:16.698Z,1.73
2018-08-27T13:14:44.874Z,2.10
2018-08-27T13:17:13.038Z,1.90
2018-08-27T13:19:41.205Z,2.00
2018-08-27T13:22:09.374Z,1.90
2018-08-27T13:24:37.619Z,2.10
2018-08-27T13:27:05.770Z,2.08
2018-08-27T13:29:33.940Z,2.00
2018-08-27T13:32:02.108Z,1.90
2018-08-27T13:34:30.281Z,1.85
2018-08-27T13:36:58.437Z,2.03
2018-08-27T13:39:26.593Z,2.10
2018-08-27T13:41:54.825Z,1.72
2018-08-27T13:44:22.946Z,1.90
2018-08-27T13:46:51.102Z,1.90
2018-08-27T13:49:19.378Z,1.70
2018-08-27T13:51:48.130Z,2.10
2018-08-27T13:54:16.938Z,1.70
2018-08-27T13:56:45.090Z,2.00
2018-08-27T13:59:13.274Z,1.57
2018-08-27T14:01:41.443Z,1.70
2018-08-27T14:04:09.612Z,1.70
2018-08-27T14:06:37.786Z,1.70
2018-08-27T14:09:07.034Z,1.85
2018-08-27T14:11:35.403Z,1.90
2018-08-27T14:14:03.510Z,2.20
2018-08-27T14:16:31.686Z,1.70
2018-08-27T14:18:59.858Z,2.00
2018-08-27T14:21:27.998Z,1.70
2018-08-27T14:23:56.190Z,2.20
2018-08-27T14:26:24.363Z,1.90
2018-08-27T14:28:52.545Z,2.00
2018-08-27T14:31:20.732Z,1.77
2018-08-27T14:33:48.922Z,1.85
2018-08-27T14:36:17.114Z,2.00
2018-08-27T14:38:45.333Z,2.00
2018-08-27T14:41:13.543Z,1.90
2018-08-27T14:43:41.707Z,1.77
2018-08-27T14:46:09.894Z,2.20
2018-08-27T14:48:38.096Z,2.08
2018-08-27T14:51:06.383Z,2.00
2018-08-27T14:53:34.557Z,1.80
2018-08-27T14:56:02.785Z,2.00
2018-08-27T14:58:30.923Z,1.90
2018-08-27T15:01:13.869Z,1.60
2018-08-27T15:03:42.055Z,1.80
2018-08-27T15:06:10.241Z,1.70
2018-08-27T15:08:38.518Z,1.80
2018-08-27T15:11:06.729Z,2.00
2018-08-27T15:13:34.914Z,1.87
2018-08-27T15:16:03.103Z,1.90
2018-08-27T15:18:31.298Z,2.20
2018-08-27T15:20:59.491Z,2.00
2018-08-27T15:23:27.771Z,1.70
2018-08-27T15:25:55.882Z,2.00
2018-08-27T15:28:24.064Z,2.00
2018-08-27T15:30:52.242Z,1.70
2018-08-27T15:33:20.404Z,1.77
2018-08-27T15:35:48.582Z,2.17
2018-08-27T15:38:16.792Z,2.00
2018-08-27T15:40:44.944Z,1.65
2018-08-27T15:43:13.101Z,1.70
2018-08-27T15:45:46.598Z,1.80
2018-08-27T15:48:14.798Z,2.00
2018-08-27T15:50:43.010Z,1.60
2018-08-27T15:53:11.356Z,1.52
2018-08-27T15:55:39.550Z,1.75
2018-08-27T15:58:08.038Z,1.85
2018-08-27T16:00:36.222Z,1.80
2018-08-27T16:03:04.402Z,1.80
2018-08-27T16:05:32.641Z,2.00
2018-08-27T16:08:00.747Z,1.57
2018-08-27T16:10:28.898Z,1.50
2018-08-27T16:12:57.079Z,2.00
2018-08-27T16:15:25.260Z,2.10
2018-08-27T16:17:53.451Z,1.90
2018-08-27T16:20:21.602Z,1.77
2018-08-27T16:22:49.770Z,2.02
2018-08-27T16:25:17.955Z,1.70
2018-08-27T16:27:46.142Z,1.90
2018-08-27T16:30:14.326Z,1.92
2018-08-27T16:32:42.613Z,1.73
2018-08-27T16:35:10.854Z,2.00
2018-08-27T16:37:39.066Z,2.00
2018-08-27T16:40:07.502Z,1.80
2018-08-27T16:42:35.680Z,1.85
2018-08-27T16:45:03.874Z,1.63
2018-08-27T16:47:32.077Z,1.82
2018-08-27T16:50:00.290Z,2.00
2018-08-27T16:52:28.531Z,1.70
2018-08-27T16:54:56.666Z,1.70
2018-08-27T16:57:24.882Z,1.77
2018-08-27T16:59:53.062Z,1.90
2018-08-27T17:02:21.254Z,2.00
2018-08-27T17:04:49.450Z,1.70
2018-08-27T17:07:17.654Z,1.80
2018-08-27T17:09:45.870Z,1.90
2018-08-27T17:12:14.029Z,1.75
2018-08-27T17:14:42.213Z,1.82
2018-08-27T17:17:10.418Z,1.87
2018-08-27T17:19:38.586Z,1.90
2018-08-27T17:22:06.794Z,1.98
2018-08-27T17:24:34.971Z,1.80
2018-08-27T17:27:03.164Z,1.90
2018-08-27T17:29:31.338Z,1.70
2018-08-27T17:31:59.498Z,1.80
2018-08-27T17:34:27.662Z,1.90
2018-08-27T17:36:55.846Z,1.70
2018-08-27T17:39:24.052Z,2.10
2018-08-27T17:41:52.178Z,2.00
2018-08-27T17:44:20.339Z,2.12
2018-08-27T17:46:48.514Z,2.42
2018-08-27T17:49:16.665Z,2.40
2018-08-27T17:51:44.844Z,2.65
2018-08-27T17:54:13.014Z,3.00
2018-08-27T17:56:41.183Z,3.30
2018-08-27T17:59:09.334Z,4.70
2018-08-27T18:01:37.550Z,11.80
2018-08-27T18:04:05.722Z,6.25
2018-08-27T18:06:33.893Z,3.10
2018-08-27T18:09:02.078Z,3.60
2018-08-27T18:11:30.242Z,2.85
2018-08-27T18:13:58.410Z,2.80
2018-08-27T18:16:26.578Z,2.30
2018-08-27T18:18:54.753Z,2.10
2018-08-27T18:21:23.791Z,2.20
2018-08-27T18:23:51.978Z,2.50
2018-08-27T18:26:20.171Z,2.00
2018-08-27T18:28:48.736Z,2.20
2018-08-27T18:31:16.882Z,2.17
2018-08-27T18:33:45.051Z,2.07
2018-08-27T18:36:13.231Z,2.00
2018-08-27T18:38:41.390Z,2.10
2018-08-27T18:41:09.562Z,2.33
2018-08-27T18:43:37.717Z,2.10
2018-08-27T18:46:05.974Z,2.30
2018-08-27T18:48:34.131Z,2.60
2018-08-27T18:51:02.307Z,3.10
2018-08-27T18:53:30.482Z,2.62
2018-08-27T18:55:58.682Z,2.20
2018-08-27T18:58:26.858Z,2.22
2018-08-27T19:00:55.026Z,2.63
2018-08-27T19:03:23.202Z,2.70
2018-08-27T19:05:51.362Z,2.90
2018-08-27T19:08:19.530Z,2.70
2018-08-27T19:10:47.690Z,2.47
2018-08-27T19:13:15.878Z,2.30
2018-08-27T19:15:44.045Z,2.30
2018-08-27T19:18:12.206Z,2.60
2018-08-27T19:20:40.426Z,2.40
2018-08-27T19:23:08.559Z,2.10
2018-08-27T19:25:36.766Z,2.50
2018-08-27T19:28:04.971Z,2.30
2018-08-27T19:30:33.142Z,2.20
2018-08-27T19:33:01.338Z,1.80
2018-08-27T19:35:29.603Z,1.90
2018-08-27T19:37:57.697Z,1.82
2018-08-27T19:40:25.882Z,1.90
2018-08-27T19:42:54.141Z,1.62
2018-08-27T19:45:22.278Z,1.70
2018-08-27T19:47:50.486Z,1.60
2018-08-27T19:50:18.694Z,2.00
2018-08-27T19:52:46.875Z,2.10
2018-08-27T19:55:15.077Z,2.00
2018-08-27T19:57:43.271Z,2.35
2018-08-27T20:00:11.470Z,2.30
2018-08-27T20:02:39.742Z,2.33
2018-08-27T20:05:07.882Z,2.00
2018-08-27T20:07:36.045Z,2.05
2018-08-27T20:10:04.274Z,2.20
2018-08-27T20:12:32.459Z,2.47
2018-08-27T20:15:00.651Z,1.87
2018-08-27T20:17:28.814Z,2.00
2018-08-27T20:19:57.015Z,1.90
2018-08-27T20:22:25.211Z,1.70
2018-08-27T20:24:53.396Z,1.90
2018-08-27T20:27:21.559Z,2.00
2018-08-27T20:29:49.739Z,1.90
2018-08-27T20:32:17.906Z,1.90
2018-08-27T20:34:46.091Z,2.30
2018-08-27T20:37:14.242Z,2.10
2018-08-27T20:39:42.523Z,1.90
2018-08-27T20:42:10.602Z,2.00
2018-08-27T20:44:38.801Z,2.33
2018-08-27T20:47:06.953Z,2.05
2018-08-27T20:49:35.123Z,2.10
2018-08-27T20:52:03.283Z,2.00
2018-08-27T20:54:31.449Z,2.25
2018-08-27T20:56:59.714Z,1.85
2018-08-27T20:59:27.890Z,1.80
2018-08-27T21:01:56.045Z,1.87
2018-08-27T21:04:24.305Z,2.00
2018-08-27T21:06:52.394Z,1.80
2018-08-27T21:09:20.558Z,1.80
2018-08-27T21:11:48.725Z,1.70
2018-08-27T21:14:39.266Z,1.98
2018-08-27T21:17:07.418Z,1.70
2018-08-27T21:19:35.617Z,1.70
2018-08-27T21:22:03.774Z,1.70
2018-08-27T21:24:31.947Z,1.87
2018-08-27T21:27:00.127Z,1.80
2018-08-27T21:29:28.334Z,1.90
2018-08-27T21:31:56.532Z,1.55
2018-08-27T21:34:24.749Z,2.00
2018-08-27T21:36:52.940Z,1.90
2018-08-27T21:39:21.134Z,1.80
2018-08-27T21:41:49.338Z,1.60
2018-08-27T21:44:17.502Z,1.70
2018-08-27T21:46:45.744Z,2.00
2018-08-27T21:49:13.872Z,2.10
2018-08-27T21:51:42.089Z,2.15
2018-08-27T21:54:10.266Z,1.90
2018-08-27T21:56:38.446Z,2.00
2018-08-27T21:59:06.627Z,1.90
2018-08-27T22:01:34.787Z,2.15
2018-08-27T22:04:08.267Z,2.12
2018-08-27T22:06:36.406Z,2.15
2018-08-27T22:09:04.897Z,2.20
2018-08-27T22:11:33.286Z,2.07
2018-08-27T22:14:01.672Z,2.00
2018-08-27T22:16:29.862Z,2.20
2018-08-27T22:18:58.234Z,1.80
2018-08-27T22:21:26.633Z,2.65
2018-08-27T22:23:54.796Z,2.20
2018-08-27T22:26:22.935Z,2.10
2018-08-27T22:28:51.194Z,2.10
2018-08-27T22:31:19.335Z,2.30
2018-08-27T22:33:47.496Z,2.10
2018-08-27T22:36:15.694Z,2.30
2018-08-27T22:38:44.081Z,1.90
2018-08-27T22:41:12.174Z,2.20
2018-08-27T22:43:40.306Z,2.40
2018-08-27T22:46:08.797Z,2.45
2018-08-27T22:48:36.954Z,2.20
2018-08-27T22:51:05.315Z,2.10
2018-08-27T22:53:33.454Z,2.20
2018-08-27T22:56:01.605Z,1.90
2018-08-27T22:58:29.734Z,2.08
2018-08-27T23:00:57.886Z,2.30
2018-08-27T23:03:31.313Z,1.80
2018-08-27T23:05:59.462Z,2.25
2018-08-27T23:08:27.582Z,1.90
2018-08-27T23:10:55.745Z,2.12
2018-08-27T23:13:23.878Z,2.30
2018-08-27T23:15:52.014Z,2.20
2018-08-27T23:18:20.154Z,1.90
2018-08-27T23:20:48.300Z,2.20
2018-08-27T23:23:16.438Z,2.20
2018-08-27T23:25:44.570Z,2.10
2018-08-27T23:28:12.721Z,2.10
2018-08-27T23:30:40.865Z,2.10
2018-08-27T23:33:09.030Z,2.10
2018-08-27T23:35:37.149Z,2.10
2018-08-27T23:38:05.345Z,1.90
2018-08-27T23:40:33.502Z,2.40
2018-08-27T23:43:01.666Z,2.40
2018-08-27T23:45:29.814Z,1.82
2018-08-27T23:47:58.006Z,2.15
2018-08-27T23:50:26.149Z,2.50
2018-08-27T23:52:54.330Z,2.30
2018-08-27T23:55:22.474Z,2.17
2018-08-27T23:57:50.653Z,2.40
